createdAt,value
2023-04-06T00:00:11.204Z,42.40
2023-04-06T00:02:38.081Z,42.50
2023-04-06T00:05:05.137Z,42.80
2023-04-06T00:07:34.397Z,43.20
2023-04-06T00:10:01.177Z,43.30
2023-04-06T00:12:27.972Z,43.50
2023-04-06T00:14:54.754Z,43.80
2023-04-06T00:17:21.763Z,43.80
2023-04-06T00:19:48.500Z,44.20
2023-04-06T00:22:15.631Z,44.00
2023-04-06T00:24:42.444Z,44.30
2023-04-06T00:27:09.186Z,44.50
2023-04-06T00:29:36.328Z,44.60
2023-04-06T00:32:03.177Z,44.60
2023-04-06T00:34:30.009Z,44.80
2023-04-06T00:36:56.735Z,45.10
2023-04-06T00:39:23.563Z,45.40
2023-04-06T00:41:53.002Z,45.10
2023-04-06T00:44:21.016Z,45.70
2023-04-06T00:46:47.917Z,45.70
2023-04-06T00:49:14.785Z,45.70
2023-04-06T00:51:41.518Z,45.70
2023-04-06T00:54:08.367Z,45.90
2023-04-06T00:56:35.419Z,46.20
2023-04-06T00:59:02.321Z,46.10
2023-04-06T01:01:30.099Z,46.20
2023-04-06T01:03:56.927Z,46.50
2023-04-06T01:06:23.665Z,46.30
2023-04-06T01:08:50.438Z,46.60
2023-04-06T01:11:18.216Z,46.50
2023-04-06T01:13:44.926Z,46.70
2023-04-06T01:16:11.797Z,46.50
2023-04-06T01:18:39.314Z,46.40
2023-04-06T01:21:06.848Z,46.20
2023-04-06T01:23:33.618Z,46.40
2023-04-06T01:26:00.395Z,46.30
2023-04-06T01:28:27.130Z,46.50
2023-04-06T01:30:53.846Z,46.70
2023-04-06T01:33:20.744Z,46.80
2023-04-06T01:35:47.531Z,46.70
2023-04-06T01:38:14.419Z,46.80
2023-04-06T01:40:41.604Z,46.80
2023-04-06T01:43:08.447Z,46.90
2023-04-06T01:45:35.454Z,47.20
2023-04-06T01:48:02.300Z,47.40
2023-04-06T01:50:29.118Z,47.20
2023-04-06T01:52:56.056Z,47.00
2023-04-06T01:55:22.864Z,47.00
2023-04-06T01:57:49.701Z,47.40
2023-04-06T02:00:17.208Z,47.40
2023-04-06T02:02:44.110Z,47.30
2023-04-06T02:05:10.960Z,47.30
2023-04-06T02:07:37.873Z,47.50
2023-04-06T02:10:05.158Z,47.60
2023-04-06T02:12:31.919Z,47.70
2023-04-06T02:14:59.007Z,47.90
2023-04-06T02:17:25.880Z,48.10
2023-04-06T02:19:52.665Z,48.40
2023-04-06T02:22:19.381Z,48.30
2023-04-06T02:24:47.697Z,48.10
2023-04-06T02:27:16.017Z,48.30
2023-04-06T02:29:42.862Z,48.50
2023-04-06T02:32:09.594Z,48.60
2023-04-06T02:34:36.366Z,48.80
2023-04-06T02:37:03.110Z,49.00
2023-04-06T02:39:29.844Z,49.20
2023-04-06T02:41:58.008Z,49.20
2023-04-06T02:44:24.834Z,49.40
2023-04-06T02:46:51.919Z,49.30
2023-04-06T02:49:18.643Z,49.30
2023-04-06T02:51:45.378Z,49.30
2023-04-06T02:54:12.197Z,49.60
2023-04-06T02:56:38.959Z,49.70
2023-04-06T02:59:05.828Z,49.40
2023-04-06T03:01:32.682Z,49.10
2023-04-06T03:03:59.485Z,49.40
2023-04-06T03:06:26.322Z,49.50
2023-04-06T03:08:53.072Z,49.40
2023-04-06T03:11:19.993Z,49.30
2023-04-06T03:13:46.761Z,49.10
2023-04-06T03:16:13.522Z,49.30
2023-04-06T03:18:40.457Z,49.20
2023-04-06T03:21:07.209Z,49.30
2023-04-06T03:23:33.956Z,49.30
2023-04-06T03:26:01.151Z,49.30
2023-04-06T03:28:27.902Z,49.30
2023-04-06T03:30:54.719Z,49.40
2023-04-06T03:33:21.475Z,49.50
2023-04-06T03:35:48.269Z,49.30
2023-04-06T03:38:15.661Z,49.50
2023-04-06T03:40:43.687Z,49.40
2023-04-06T03:43:10.490Z,49.20
2023-04-06T03:45:37.234Z,49.40
2023-04-06T03:48:04.417Z,49.30
2023-04-06T03:50:31.219Z,49.90
2023-04-06T03:52:58.383Z,50.20
2023-04-06T03:55:25.371Z,49.30
2023-04-06T03:57:52.216Z,49.30
2023-04-06T04:00:19.102Z,49.50
2023-04-06T04:02:46.055Z,49.60
2023-04-06T04:05:12.925Z,50.00
2023-04-06T04:07:39.795Z,49.80
2023-04-06T04:10:07.003Z,50.30
2023-04-06T04:12:33.821Z,49.30
2023-04-06T04:15:00.800Z,49.20
2023-04-06T04:17:27.554Z,49.30
2023-04-06T04:19:54.317Z,49.60
2023-04-06T04:22:21.056Z,49.70
2023-04-06T04:24:47.761Z,49.90
2023-04-06T04:27:14.494Z,50.10
2023-04-06T04:29:41.279Z,50.50
2023-04-06T04:32:08.074Z,50.60
2023-04-06T04:34:34.855Z,50.70
2023-04-06T04:37:01.619Z,51.20
2023-04-06T04:39:28.419Z,51.50
2023-04-06T04:41:55.409Z,51.70
2023-04-06T04:44:22.139Z,51.90
2023-04-06T04:46:48.974Z,51.90
2023-04-06T04:49:15.928Z,52.10
2023-04-06T04:51:42.801Z,52.30
2023-04-06T04:54:09.638Z,52.10
2023-04-06T04:56:36.413Z,52.50
2023-04-06T04:59:03.227Z,52.30
2023-04-06T05:03:56.995Z,52.30
2023-04-06T05:06:23.737Z,52.50
2023-04-06T05:08:50.548Z,52.30
2023-04-06T05:11:17.664Z,52.30
2023-04-06T05:13:44.563Z,52.40
2023-04-06T05:16:11.898Z,51.90
2023-04-06T05:18:38.850Z,52.00
2023-04-06T05:21:05.657Z,52.10
2023-04-06T05:23:32.428Z,52.00
2023-04-06T05:25:59.269Z,52.20
2023-04-06T05:28:26.078Z,52.30
2023-04-06T05:30:53.871Z,52.40
2023-04-06T05:33:20.704Z,52.40
2023-04-06T05:35:47.404Z,52.30
2023-04-06T05:38:14.140Z,52.00
2023-04-06T05:40:42.099Z,51.90
2023-04-06T05:43:09.271Z,51.40
2023-04-06T05:45:36.154Z,50.50
2023-04-06T05:48:03.641Z,50.40
2023-04-06T05:50:30.708Z,50.40
2023-04-06T05:52:57.447Z,49.90
2023-04-06T05:55:24.196Z,50.00
2023-04-06T05:57:50.994Z,49.80
2023-04-06T06:00:17.875Z,48.90
2023-04-06T06:02:44.652Z,48.10
2023-04-06T06:05:11.759Z,47.50
2023-04-06T06:07:38.709Z,47.50
2023-04-06T06:10:05.836Z,46.80
2023-04-06T06:12:32.613Z,46.00
2023-04-06T06:14:59.458Z,45.80
2023-04-06T06:17:26.362Z,44.90
2023-04-06T06:19:53.281Z,44.60
2023-04-06T06:22:20.344Z,43.40
2023-04-06T06:24:47.072Z,43.10
2023-04-06T06:27:13.888Z,42.30
2023-04-06T06:29:40.979Z,41.40
2023-04-06T06:32:09.967Z,40.70
2023-04-06T06:34:37.144Z,40.90
2023-04-06T06:37:03.927Z,40.00
2023-04-06T06:39:30.855Z,39.40
2023-04-06T06:41:57.689Z,38.00
2023-04-06T06:44:24.532Z,37.10
2023-04-06T06:46:51.365Z,36.40
2023-04-06T06:49:18.144Z,36.00
2023-04-06T06:51:45.363Z,35.30
2023-04-06T06:54:12.280Z,34.00
2023-04-06T06:56:39.572Z,33.20
2023-04-06T06:59:09.459Z,32.40
2023-04-06T07:01:38.485Z,31.90
2023-04-06T07:04:05.735Z,31.30
2023-04-06T07:06:32.614Z,30.00
2023-04-06T07:08:59.538Z,30.30
2023-04-06T07:11:27.188Z,29.40
2023-04-06T07:13:54.025Z,28.10
2023-04-06T07:16:21.306Z,27.00
2023-04-06T07:18:48.203Z,26.20
2023-04-06T07:21:15.070Z,26.40
2023-04-06T07:23:42.593Z,26.70
2023-04-06T07:26:09.486Z,27.20
2023-04-06T07:28:36.375Z,27.50
2023-04-06T07:31:03.211Z,27.20
2023-04-06T07:33:31.123Z,27.60
2023-04-06T07:35:59.419Z,26.50
2023-04-06T07:38:26.434Z,26.90
2023-04-06T07:40:53.393Z,27.20
2023-04-06T07:43:20.411Z,27.00
2023-04-06T07:45:47.337Z,27.10
2023-04-06T07:48:14.094Z,27.10
2023-04-06T07:50:41.233Z,27.00
2023-04-06T07:53:08.088Z,27.00
2023-04-06T07:55:34.858Z,25.70
2023-04-06T07:58:01.785Z,24.40
2023-04-06T08:00:28.672Z,23.70
2023-04-06T08:02:56.034Z,23.40
2023-04-06T08:05:22.955Z,23.20
2023-04-06T08:07:49.793Z,21.60
2023-04-06T08:10:16.781Z,21.80
2023-04-06T08:12:43.577Z,21.00
2023-04-06T08:15:10.825Z,20.00
2023-04-06T08:17:37.743Z,19.80
2023-04-06T08:20:04.963Z,20.30
2023-04-06T08:22:31.870Z,19.90
2023-04-06T08:24:58.683Z,19.50
2023-04-06T08:27:25.482Z,19.20
2023-04-06T08:29:52.589Z,18.90
2023-04-06T08:32:19.646Z,18.10
2023-04-06T08:34:46.451Z,16.20
2023-04-06T08:37:13.356Z,14.90
2023-04-06T08:39:40.315Z,15.70
2023-04-06T08:42:16.230Z,16.30
2023-04-06T08:44:43.457Z,17.50
2023-04-06T08:47:10.494Z,17.00
2023-04-06T08:49:38.888Z,15.80
2023-04-06T08:52:11.763Z,16.10
2023-04-06T08:54:39.421Z,15.60
2023-04-06T08:57:07.403Z,14.80
2023-04-06T08:59:35.584Z,14.80
2023-04-06T09:02:06.493Z,15.20
2023-04-06T09:04:34.689Z,15.40
2023-04-06T09:07:02.096Z,15.30
2023-04-06T09:09:28.978Z,14.80
2023-04-06T09:11:56.984Z,14.60
2023-04-06T09:14:40.089Z,14.20
2023-04-06T09:17:07.197Z,14.20
2023-04-06T09:19:34.245Z,13.10
2023-04-06T09:22:05.728Z,13.80
2023-04-06T09:24:45.531Z,14.80
2023-04-06T09:27:12.817Z,15.00
2023-04-06T09:29:39.766Z,14.20
2023-04-06T09:32:08.135Z,13.40
2023-04-06T09:34:35.241Z,14.20
2023-04-06T09:37:12.688Z,14.50
2023-04-06T09:39:39.421Z,14.40
2023-04-06T09:42:06.329Z,14.20
2023-04-06T09:44:33.159Z,13.10
2023-04-06T09:47:01.184Z,13.70
2023-04-06T09:49:34.451Z,14.30
2023-04-06T09:52:04.084Z,13.40
2023-04-06T09:54:32.984Z,12.50
2023-04-06T09:57:11.287Z,12.80
2023-04-06T09:59:52.413Z,11.70
2023-04-06T10:02:48.496Z,11.60
2023-04-06T10:05:26.065Z,11.30
2023-04-06T10:08:00.655Z,10.90
2023-04-06T10:10:29.378Z,11.00
2023-04-06T10:12:57.234Z,10.60
2023-04-06T10:15:25.314Z,10.40
2023-04-06T10:17:52.954Z,10.50
2023-04-06T10:20:31.112Z,11.30
2023-04-06T10:23:27.682Z,10.50
2023-04-06T10:25:56.056Z,10.40
2023-04-06T10:28:23.172Z,11.00
2023-04-06T10:30:50.227Z,10.00
2023-04-06T10:33:19.174Z,10.20
2023-04-06T10:35:46.648Z,10.40
2023-04-06T10:38:15.318Z,10.70
2023-04-06T10:40:48.061Z,10.70
2023-04-06T10:43:20.474Z,11.10
2023-04-06T10:45:56.903Z,11.30
2023-04-06T10:48:24.961Z,11.90
2023-04-06T10:50:53.572Z,11.30
2023-04-06T10:53:25.278Z,11.80
2023-04-06T10:55:53.882Z,11.70
2023-04-06T10:58:20.762Z,11.50
2023-04-06T11:00:51.247Z,12.00
2023-04-06T11:03:19.038Z,12.20
2023-04-06T11:05:48.253Z,12.10
2023-04-06T11:08:24.216Z,12.10
2023-04-06T11:10:51.021Z,11.90
2023-04-06T11:13:18.320Z,12.20
2023-04-06T11:15:45.352Z,13.00
2023-04-06T11:18:12.536Z,12.90
2023-04-06T11:20:39.509Z,12.60
2023-04-06T11:23:07.256Z,13.20
2023-04-06T11:25:34.153Z,13.80
2023-04-06T11:28:01.273Z,13.70
2023-04-06T11:30:28.514Z,13.30
2023-04-06T11:33:02.474Z,14.10
2023-04-06T11:35:32.464Z,13.40
2023-04-06T11:38:00.477Z,13.80
2023-04-06T11:40:28.958Z,13.40
2023-04-06T11:42:57.032Z,13.80
2023-04-06T11:45:24.566Z,14.30
2023-04-06T11:48:02.312Z,14.30
2023-04-06T11:50:35.339Z,13.10
2023-04-06T11:53:04.176Z,11.50
2023-04-06T11:55:38.706Z,10.40
2023-04-06T11:58:05.581Z,10.40
2023-04-06T12:00:35.653Z,10.70
2023-04-06T12:03:02.528Z,10.90
2023-04-06T12:05:29.522Z,10.90
2023-04-06T12:07:57.512Z,11.90
2023-04-06T12:10:25.853Z,11.40
2023-04-06T12:12:52.672Z,11.10
2023-04-06T12:15:19.459Z,10.90
2023-04-06T12:17:46.446Z,10.30
2023-04-06T12:20:25.288Z,10.40
2023-04-06T12:22:53.841Z,10.80
2023-04-06T12:25:21.072Z,10.80
2023-04-06T12:27:48.259Z,10.80
2023-04-06T12:30:15.453Z,10.70
2023-04-06T12:32:42.430Z,10.70
2023-04-06T12:35:10.221Z,10.30
2023-04-06T12:37:37.885Z,10.20
2023-04-06T12:40:05.444Z,10.60
2023-04-06T12:42:32.290Z,11.10
2023-04-06T12:44:59.126Z,11.60
2023-04-06T12:47:27.530Z,11.30
2023-04-06T12:49:55.873Z,10.70
2023-04-06T12:52:22.875Z,10.40
2023-04-06T12:54:51.187Z,11.90
2023-04-06T12:57:18.258Z,10.60
2023-04-06T12:59:45.712Z,9.80
2023-04-06T13:02:12.996Z,9.10
2023-04-06T13:04:39.943Z,8.20
2023-04-06T13:07:06.877Z,8.70
2023-04-06T13:09:33.807Z,9.40
2023-04-06T13:12:00.605Z,9.90
2023-04-06T13:14:27.414Z,9.70
2023-04-06T13:16:54.208Z,9.00
2023-04-06T13:19:21.185Z,8.20
2023-04-06T13:21:48.253Z,9.30
2023-04-06T13:24:16.585Z,9.90
2023-04-06T13:26:44.488Z,10.20
2023-04-06T13:29:11.319Z,10.30
2023-04-06T13:31:39.206Z,9.90
2023-04-06T13:34:06.544Z,9.40
2023-04-06T13:36:33.503Z,9.30
2023-04-06T13:39:00.340Z,9.30
2023-04-06T13:41:27.632Z,8.40
2023-04-06T13:43:54.478Z,8.50
2023-04-06T13:46:21.615Z,8.50
2023-04-06T13:48:49.051Z,7.60
2023-04-06T13:51:16.433Z,8.60
2023-04-06T13:53:43.456Z,8.70
2023-04-06T13:56:10.472Z,8.40
2023-04-06T13:58:37.557Z,9.00
2023-04-06T14:01:11.046Z,9.10
2023-04-06T14:03:38.768Z,9.00
2023-04-06T14:06:29.535Z,9.70
2023-04-06T14:08:58.311Z,13.00
2023-04-06T14:11:25.262Z,9.20
2023-04-06T14:13:52.143Z,8.80
2023-04-06T14:16:20.684Z,8.70
2023-04-06T14:18:47.824Z,8.90
2023-04-06T14:21:15.772Z,7.70
2023-04-06T14:23:42.644Z,8.20
2023-04-06T14:26:09.856Z,8.60
2023-04-06T14:28:38.768Z,8.80
2023-04-06T14:31:13.112Z,9.30
2023-04-06T14:33:40.954Z,9.60
2023-04-06T14:36:08.565Z,9.90
2023-04-06T14:38:36.656Z,10.40
2023-04-06T14:41:03.506Z,10.00
2023-04-06T14:43:30.856Z,9.90
2023-04-06T14:46:01.654Z,9.80
2023-04-06T14:48:29.071Z,9.50
2023-04-06T14:50:56.789Z,9.50
2023-04-06T14:53:27.958Z,8.90
2023-04-06T14:55:55.639Z,9.40
2023-04-06T14:58:23.953Z,9.40
2023-04-06T15:00:56.220Z,9.50
2023-04-06T15:03:23.865Z,9.40
2023-04-06T15:05:51.076Z,9.60
2023-04-06T15:08:18.290Z,9.50
2023-04-06T15:10:45.054Z,9.20
2023-04-06T15:13:11.950Z,9.70
2023-04-06T15:15:38.999Z,9.00
2023-04-06T15:18:06.218Z,9.20
2023-04-06T15:20:33.208Z,9.40
2023-04-06T15:23:00.058Z,9.60
2023-04-06T15:25:26.976Z,9.50
2023-04-06T15:27:54.993Z,9.50
2023-04-06T15:30:22.000Z,9.50
2023-04-06T15:32:58.594Z,9.90
2023-04-06T15:35:26.511Z,9.90
2023-04-06T15:37:53.595Z,9.90
2023-04-06T15:40:20.361Z,9.80
2023-04-06T15:42:47.300Z,10.00
2023-04-06T15:45:14.393Z,10.00
2023-04-06T15:47:42.332Z,10.10
2023-04-06T15:50:10.645Z,9.70
2023-04-06T15:52:39.182Z,9.10
2023-04-06T15:55:08.165Z,8.70
2023-04-06T15:57:36.038Z,8.70
2023-04-06T16:00:05.020Z,9.30
2023-04-06T16:02:32.176Z,9.20
2023-04-06T16:05:02.762Z,9.30
2023-04-06T16:07:34.371Z,9.40
2023-04-06T16:10:01.570Z,9.70
2023-04-06T16:12:29.176Z,9.50
2023-04-06T16:14:56.201Z,9.40
2023-04-06T16:17:23.260Z,9.50
2023-04-06T16:19:50.075Z,9.90
2023-04-06T16:22:17.234Z,10.00
2023-04-06T16:24:44.079Z,10.20
2023-04-06T16:27:10.909Z,11.00
2023-04-06T16:29:38.576Z,10.40
2023-04-06T16:32:05.955Z,10.30
2023-04-06T16:34:33.896Z,10.20
2023-04-06T16:37:01.835Z,9.60
2023-04-06T16:39:28.917Z,9.50
2023-04-06T16:41:56.798Z,9.70
2023-04-06T16:44:23.829Z,9.40
2023-04-06T16:46:51.240Z,9.90
2023-04-06T16:49:20.093Z,9.50
2023-04-06T16:51:47.076Z,9.40
2023-04-06T16:54:13.992Z,9.70
2023-04-06T16:56:40.811Z,9.90
2023-04-06T16:59:09.126Z,10.10
2023-04-06T17:01:36.196Z,10.40
2023-04-06T17:04:03.409Z,10.70
2023-04-06T17:06:31.089Z,10.60
2023-04-06T17:08:59.853Z,10.90
2023-04-06T17:11:48.850Z,10.80
2023-04-06T17:14:13.856Z,10.90
2023-04-06T17:16:40.783Z,11.10
2023-04-06T17:19:07.819Z,11.10
2023-04-06T17:21:34.592Z,11.40
2023-04-06T17:24:01.453Z,11.40
2023-04-06T17:26:28.367Z,11.20
2023-04-06T17:28:55.407Z,11.30
2023-04-06T17:31:22.653Z,11.50
2023-04-06T17:33:49.927Z,11.30
2023-04-06T17:36:16.930Z,11.20
2023-04-06T17:38:44.390Z,11.50
2023-04-06T17:41:12.667Z,11.90
2023-04-06T17:43:39.925Z,11.30
2023-04-06T17:46:06.852Z,12.10
2023-04-06T17:48:33.748Z,12.20
2023-04-06T17:51:00.513Z,11.70
2023-04-06T17:53:30.568Z,11.80
2023-04-06T17:55:57.520Z,12.10
2023-04-06T17:58:24.558Z,12.10
2023-04-06T18:00:51.306Z,12.50
2023-04-06T18:03:18.151Z,12.70
2023-04-06T18:05:45.083Z,13.10
2023-04-06T18:08:12.772Z,13.40
2023-04-06T18:10:39.597Z,14.20
2023-04-06T18:13:07.222Z,14.30
2023-04-06T18:15:36.539Z,14.40
2023-04-06T18:18:03.539Z,14.40
2023-04-06T18:20:30.546Z,14.60
2023-04-06T18:22:57.383Z,14.60
2023-04-06T18:25:25.385Z,14.70
2023-04-06T18:27:52.196Z,14.80
2023-04-06T18:30:20.003Z,15.30
2023-04-06T18:32:46.844Z,15.50
2023-04-06T18:35:14.472Z,16.20
2023-04-06T18:37:41.705Z,15.80
2023-04-06T18:40:09.010Z,16.30
2023-04-06T18:42:36.231Z,16.70
2023-04-06T18:45:03.178Z,17.00
2023-04-06T18:47:29.952Z,17.30
2023-04-06T18:49:57.966Z,17.60
2023-04-06T18:52:24.825Z,17.80
2023-04-06T18:54:51.673Z,18.10
2023-04-06T18:57:18.455Z,17.90
2023-04-06T18:59:45.499Z,17.60
2023-04-06T19:02:14.325Z,17.50
2023-04-06T19:04:41.589Z,17.70
2023-04-06T19:07:08.438Z,18.50
2023-04-06T19:09:35.311Z,19.10
2023-04-06T19:12:02.305Z,19.50
2023-04-06T19:14:32.153Z,19.80
2023-04-06T19:16:59.098Z,20.00
2023-04-06T19:19:26.058Z,19.80
2023-04-06T19:21:52.887Z,19.70
2023-04-06T19:24:19.684Z,19.60
2023-04-06T19:26:47.201Z,19.40
2023-04-06T19:29:14.125Z,19.20
2023-04-06T19:31:41.288Z,19.00
2023-04-06T19:34:08.211Z,19.20
2023-04-06T19:36:35.156Z,19.60
2023-04-06T19:39:02.014Z,20.00
2023-04-06T19:41:28.848Z,19.90
2023-04-06T19:43:55.690Z,19.70
2023-04-06T19:46:22.617Z,19.30
2023-04-06T19:48:49.583Z,19.30
2023-04-06T19:51:16.577Z,19.20
2023-04-06T19:53:43.536Z,19.30
2023-04-06T19:56:10.692Z,19.50
2023-04-06T19:58:38.543Z,19.30
2023-04-06T20:01:05.566Z,19.50
2023-04-06T20:03:33.231Z,19.70
2023-04-06T20:06:00.834Z,19.70
2023-04-06T20:08:28.943Z,20.20
2023-04-06T20:11:04.251Z,19.30
2023-04-06T20:13:31.481Z,19.40
2023-04-06T20:15:59.009Z,19.50
2023-04-06T20:18:26.260Z,19.30
2023-04-06T20:20:54.589Z,19.20
2023-04-06T20:23:21.395Z,19.30
2023-04-06T20:25:48.190Z,19.20
2023-04-06T20:28:15.015Z,19.20
2023-04-06T20:30:42.008Z,18.70
2023-04-06T20:33:08.868Z,18.90
2023-04-06T20:35:35.795Z,18.80
2023-04-06T20:38:02.965Z,18.90
2023-04-06T20:40:29.756Z,19.00
2023-04-06T20:42:57.507Z,19.10
2023-04-06T20:45:25.765Z,19.30
2023-04-06T20:47:54.346Z,19.30
2023-04-06T20:50:22.074Z,19.60
2023-04-06T20:52:49.602Z,19.50
2023-04-06T20:55:16.794Z,19.60
2023-04-06T20:57:45.045Z,19.40
2023-04-06T21:00:13.188Z,19.40
2023-04-06T21:02:41.160Z,19.60
2023-04-06T21:05:09.508Z,19.90
2023-04-06T21:07:37.745Z,20.20
2023-04-06T21:10:06.836Z,20.40
2023-04-06T21:12:33.825Z,20.50
2023-04-06T21:15:01.310Z,20.70
2023-04-06T21:17:28.105Z,21.20
2023-04-06T21:19:54.953Z,21.40
2023-04-06T21:22:22.791Z,21.70
2023-04-06T21:24:49.656Z,21.80
2023-04-06T21:27:16.588Z,22.20
2023-04-06T21:29:43.427Z,22.40
2023-04-06T21:32:10.361Z,22.10
2023-04-06T21:34:37.146Z,22.30
2023-04-06T21:37:03.981Z,22.70
2023-04-06T21:39:31.036Z,22.80
2023-04-06T21:41:58.587Z,22.90
2023-04-06T21:44:25.652Z,23.10
2023-04-06T21:46:52.372Z,23.20
2023-04-06T21:49:19.150Z,23.40
2023-04-06T21:51:46.170Z,23.60
2023-04-06T21:54:12.960Z,23.50
2023-04-06T21:56:39.733Z,23.70
2023-04-06T21:59:06.695Z,23.80
2023-04-06T22:01:33.454Z,24.00
2023-04-06T22:04:02.359Z,24.30
2023-04-06T22:06:30.050Z,24.10
2023-04-06T22:08:58.155Z,24.50
2023-04-06T22:11:25.064Z,24.90
2023-04-06T22:13:51.881Z,25.90
2023-04-06T22:16:18.932Z,26.30
2023-04-06T22:18:46.110Z,26.40
2023-04-06T22:21:13.021Z,26.20
2023-04-06T22:23:42.549Z,26.40
2023-04-06T22:26:10.866Z,26.60
2023-04-06T22:28:38.096Z,26.80
2023-04-06T22:31:04.871Z,26.90
2023-04-06T22:33:31.877Z,27.10
2023-04-06T22:35:58.769Z,27.30
2023-04-06T22:38:25.614Z,27.60
2023-04-06T22:40:52.446Z,27.60
2023-04-06T22:43:19.223Z,27.70
2023-04-06T22:45:46.073Z,27.80
2023-04-06T22:48:12.880Z,27.60
2023-04-06T22:50:39.754Z,27.70
2023-04-06T22:53:06.770Z,27.80
2023-04-06T22:55:33.560Z,28.10
2023-04-06T22:58:00.448Z,28.30
2023-04-06T23:00:27.222Z,28.60
2023-04-06T23:02:54.046Z,28.90
2023-04-06T23:05:21.147Z,28.90
2023-04-06T23:07:47.887Z,29.30
2023-04-06T23:10:14.848Z,29.40
2023-04-06T23:12:41.563Z,29.40
2023-04-06T23:15:09.185Z,29.50
2023-04-06T23:17:36.109Z,29.40
2023-04-06T23:20:02.994Z,29.50
2023-04-06T23:22:29.758Z,29.90
2023-04-06T23:24:56.725Z,29.30
2023-04-06T23:27:23.495Z,29.20
2023-04-06T23:29:50.252Z,29.30
2023-04-06T23:32:17.020Z,29.40
2023-04-06T23:34:43.871Z,29.60
2023-04-06T23:37:10.590Z,30.00
2023-04-06T23:39:38.099Z,30.60
2023-04-06T23:42:05.062Z,30.50
2023-04-06T23:44:31.885Z,30.30
2023-04-06T23:46:58.669Z,30.50
2023-04-06T23:49:25.550Z,30.40
2023-04-06T23:51:52.267Z,30.20
2023-04-06T23:54:19.014Z,30.10
2023-04-06T23:56:46.422Z,30.30
2023-04-06T23:59:13.233Z,30.20
